Donalds, SC (29638)

8:50 AM EDT on September 22, 2014 (GMT -0400)
Golden Acres | Change Station
CLOSE
Current Station
Personal Weather Station
Location: Honea Path, SC
Elevation: 765 ft
Nearby Weather Stations

Elev 765 ft 34.39 °N, 82.41 °W | Updated 6 seconds ago

Mostly Cloudy
Mostly Cloudy
66.5 °F
Feels Like 66.5 °F
N
0.0
Wind Variable Wind from NE
Gusts 0.0 mph

Today
High -- | Low -- °F
--% Chance of Precip.
Yesterday
High -- | Low -- °F
Precip. -- in
7:17 AM 7:26 PM
Waning Crescent, 3% visible
Pressure 30.02 in
Visibility 10.0 miles
Clouds Overcast 7000 ft
Dew Point 60 °F
Humidity 79%
Rainfall 0.00 in
Snow Depth Not available.
UV 0 out of 12
Pollen 6.80 out of 12
Ozone Good
PM2.5 Good
Flu Activity Not available.
METAR KGRD 221156Z AUTO 02003KT 10SM OVC070 21/16 A3004 RMK AO2 SLP166 T02110161 10233 20194 53021

More Conditions Fewer Conditions

Pressure 30.02 in
Visibility 10.0 miles
Clouds Overcast 7000 ft
Dew Point 60 °F
Humidity 79%
Rainfall 0.00 in
Snow Depth Not available.
UV 0 out of 12
Pollen 6.80 out of 12
Ozone Good
PM2.5 Good
Flu Activity Not available.
METAR KGRD 221156Z AUTO 02003KT 10SM OVC070 21/16 A3004 RMK AO2 SLP166 T02110161 10233 20194 53021

More Conditions Fewer Conditions

10-Day Weather Forecast

Almanac

Astronomy

Sep. 22, 2014 Rise Set
Actual Time 7:17 AM EDT 7:26 PM EDT
Civil Twilight 6:52 AM EDT 7:51 PM EDT
Nautical Twilight 6:23 AM EDT 8:20 PM EDT
Astronomical Twilight 5:53 AM EDT 8:50 PM EDT
Moon 5:47 AM EDT 6:31 PM EDT
Length of Visible Light 12h 58m
Length of Day
12h 08m
Tomorrow will be 2m 8s shorter.
Waning Crescent, 3% of the Moon is Illuminated
Today
Waning Crescent
Sep 24
New
Oct 1
First Quarter
Oct 8
Full
Oct 15
Last Quarter

Today's Extremes

State Highs State Lows

Community

WunderPhotos

Upload Photos

1,755,419 photos uploaded!

Nearby

Air Quality

  Air Quality AQ Index Pollutant
Yesterday Good
PM2.5
Yesterday Good
OZONE
Current Good
PM2.5
Current Good
OZONE
Monday Good
OZONE

Snow Depth

Station Depth Elevation
No new snow has been reported.

Earthquake Activity

City Distance Mag. Time & Date
New Ellenton, South Carolina 75 miles 2.6 4:38 PM EDT
2014-09-19
Minimum magnitude displayed is 2.5.

Coastal Water Temperatures

Place Temperature
No Stations Reporting

Nearby Weather Stations